createdAt,value
2023-04-10T00:00:31.560Z,7.47
2023-04-10T00:03:00.415Z,7.97
2023-04-10T00:05:28.541Z,7.40
2023-04-10T00:07:57.831Z,7.50
2023-04-10T00:10:26.536Z,8.33
2023-04-10T00:12:56.440Z,7.30
2023-04-10T00:15:25.149Z,8.03
2023-04-10T00:17:55.338Z,7.00
2023-04-10T00:20:23.624Z,7.40
2023-04-10T00:22:51.448Z,8.50
2023-04-10T00:25:23.054Z,8.00
2023-04-10T00:27:51.201Z,8.00
2023-04-10T00:30:19.310Z,9.43
2023-04-10T00:32:47.204Z,8.60
2023-04-10T00:35:15.602Z,8.50
2023-04-10T00:37:43.544Z,7.87
2023-04-10T00:40:12.377Z,8.20
2023-04-10T00:42:41.714Z,9.60
2023-04-10T00:45:10.833Z,7.73
2023-04-10T00:47:39.125Z,8.37
2023-04-10T00:50:07.945Z,8.63
2023-04-10T00:52:36.203Z,8.97
2023-04-10T00:55:04.427Z,8.80
2023-04-10T00:57:32.386Z,9.33
2023-04-10T01:00:02.028Z,8.33
2023-04-10T01:02:29.916Z,7.70
2023-04-10T01:04:57.964Z,9.00
2023-04-10T01:07:32.464Z,8.43
2023-04-10T01:10:06.531Z,8.60
2023-04-10T01:12:43.988Z,7.77
2023-04-10T01:15:16.360Z,10.00
2023-04-10T01:17:47.649Z,9.13
2023-04-10T01:20:21.973Z,7.83
2023-04-10T01:23:14.853Z,8.93
2023-04-10T01:25:45.571Z,9.47
2023-04-10T01:28:32.485Z,7.73
2023-04-10T01:31:03.803Z,9.43
2023-04-10T01:33:48.741Z,8.33
2023-04-10T01:36:21.470Z,9.03
2023-04-10T01:38:51.107Z,9.00
2023-04-10T01:41:20.072Z,8.80
2023-04-10T01:43:49.757Z,8.67
2023-04-10T01:46:19.916Z,8.07
2023-04-10T01:48:48.340Z,10.30
2023-04-10T01:51:16.824Z,11.13
2023-04-10T01:53:45.430Z,9.20
2023-04-10T01:56:14.129Z,8.93
2023-04-10T01:58:42.744Z,11.23
2023-04-10T02:01:22.567Z,8.47
2023-04-10T02:03:58.496Z,8.57
2023-04-10T02:06:33.151Z,9.00
2023-04-10T02:09:09.575Z,8.50
2023-04-10T02:11:43.292Z,9.43
2023-04-10T02:14:13.433Z,7.77
2023-04-10T02:16:42.238Z,8.00
2023-04-10T02:19:12.518Z,9.60
2023-04-10T02:21:42.156Z,9.07
2023-04-10T02:24:10.010Z,12.30
2023-04-10T02:26:47.650Z,8.13
2023-04-10T02:29:15.607Z,9.03
2023-04-10T02:31:44.229Z,9.50
2023-04-10T02:34:13.903Z,9.77
2023-04-10T02:36:41.905Z,8.90
2023-04-10T02:39:09.783Z,12.10
2023-04-10T02:41:37.521Z,8.27
2023-04-10T02:44:06.879Z,8.23
2023-04-10T02:46:34.725Z,9.87
2023-04-10T02:49:02.669Z,8.50
2023-04-10T02:51:36.242Z,10.53
2023-04-10T02:54:04.088Z,9.63
2023-04-10T02:56:32.191Z,9.23
2023-04-10T02:58:59.981Z,12.00
2023-04-10T03:01:27.926Z,10.23
2023-04-10T03:03:56.049Z,9.83
2023-04-10T03:06:27.240Z,8.87
2023-04-10T03:08:56.728Z,9.90
2023-04-10T03:11:24.742Z,10.30
2023-04-10T03:13:52.665Z,10.13
2023-04-10T03:16:20.810Z,9.73
2023-04-10T03:18:48.701Z,9.57
2023-04-10T03:21:16.613Z,8.73
2023-04-10T03:23:44.490Z,11.93
2023-04-10T03:26:13.646Z,10.77
2023-04-10T03:28:41.479Z,9.70
2023-04-10T03:31:09.857Z,13.27
2023-04-10T03:33:37.814Z,8.87
2023-04-10T03:36:06.453Z,10.93
2023-04-10T03:38:34.434Z,10.13
2023-04-10T03:41:02.221Z,9.30
2023-04-10T03:43:32.115Z,10.23
2023-04-10T03:45:59.982Z,10.90
2023-04-10T03:48:28.481Z,9.47
2023-04-10T03:50:56.535Z,9.13
2023-04-10T03:53:24.768Z,11.37
2023-04-10T03:55:53.152Z,10.90
2023-04-10T03:58:20.982Z,11.60
2023-04-10T04:00:50.491Z,9.77
2023-04-10T04:03:18.457Z,11.37
2023-04-10T04:05:46.552Z,11.60
2023-04-10T04:08:14.348Z,10.87
2023-04-10T04:10:42.192Z,10.10
2023-04-10T04:13:10.072Z,9.90
2023-04-10T04:15:37.906Z,12.03
2023-04-10T04:18:07.415Z,10.63
2023-04-10T04:20:35.258Z,8.97
2023-04-10T04:23:03.061Z,9.80
2023-04-10T04:25:30.932Z,10.00
2023-04-10T04:27:58.752Z,11.27
2023-04-10T04:30:26.628Z,10.53
2023-04-10T04:32:54.481Z,10.60
2023-04-10T04:35:24.193Z,10.33
2023-04-10T04:37:52.026Z,12.67
2023-04-10T04:40:19.932Z,9.37
2023-04-10T04:42:47.785Z,10.30
2023-04-10T04:45:15.561Z,10.93
2023-04-10T04:47:43.427Z,10.87
2023-04-10T04:50:11.546Z,9.63
2023-04-10T04:52:40.760Z,9.37
2023-04-10T04:55:09.625Z,10.90
2023-04-10T04:57:37.507Z,10.27
2023-04-10T05:00:06.345Z,11.80
2023-04-10T05:02:34.273Z,10.90
2023-04-10T05:05:02.441Z,14.07
2023-04-10T05:07:30.319Z,11.80
2023-04-10T05:09:59.682Z,9.73
2023-04-10T05:12:27.521Z,11.83
2023-04-10T05:14:55.400Z,11.63
2023-04-10T05:17:23.284Z,10.60
2023-04-10T05:19:51.326Z,9.50
2023-04-10T05:22:19.159Z,11.93
2023-04-10T05:24:47.131Z,10.73
2023-04-10T05:27:16.393Z,11.53
2023-04-10T05:29:44.182Z,11.40
2023-04-10T05:32:12.084Z,10.50
2023-04-10T05:34:39.993Z,10.30
2023-04-10T05:37:08.943Z,14.13
2023-04-10T05:39:36.795Z,9.90
2023-04-10T05:42:04.846Z,9.80
2023-04-10T05:44:34.020Z,13.83
2023-04-10T05:47:01.864Z,13.87
2023-04-10T05:49:29.654Z,9.53
2023-04-10T05:51:57.468Z,10.17
2023-04-10T05:54:25.456Z,11.63
2023-04-10T05:56:53.280Z,9.40
2023-04-10T05:59:21.298Z,10.50
2023-04-10T06:01:50.933Z,9.47
2023-04-10T06:04:19.099Z,10.60
2023-04-10T06:06:47.213Z,10.93
2023-04-10T06:09:15.057Z,9.97
2023-04-10T06:11:42.883Z,8.83
2023-04-10T06:14:10.664Z,8.43
2023-04-10T06:16:38.642Z,9.30
2023-04-10T06:19:07.989Z,9.03
2023-04-10T06:21:36.041Z,9.93
2023-04-10T06:24:03.891Z,9.67
2023-04-10T06:26:31.757Z,8.60
2023-04-10T06:28:59.630Z,9.60
2023-04-10T06:31:27.489Z,11.07
2023-04-10T06:33:55.724Z,8.97
2023-04-10T06:36:24.939Z,10.40
2023-04-10T06:38:52.961Z,7.83
2023-04-10T06:41:20.872Z,9.37
2023-04-10T06:43:49.142Z,8.10
2023-04-10T06:46:17.339Z,9.33
2023-04-10T06:48:53.332Z,8.57
2023-04-10T06:51:21.226Z,8.57
2023-04-10T06:53:50.421Z,8.03
2023-04-10T06:56:18.233Z,7.93
2023-04-10T06:58:46.282Z,8.37
2023-04-10T07:01:14.236Z,8.80
2023-04-10T07:03:42.098Z,8.57
2023-04-10T07:06:11.794Z,8.27
2023-04-10T07:08:39.672Z,8.03
2023-04-10T07:11:08.979Z,9.17
2023-04-10T07:13:38.914Z,8.80
2023-04-10T07:16:08.329Z,9.87
2023-04-10T07:18:38.526Z,9.83
2023-04-10T07:21:12.418Z,10.93
2023-04-10T07:23:40.886Z,8.10
2023-04-10T07:26:10.113Z,8.80
2023-04-10T07:28:38.311Z,9.47
2023-04-10T07:31:07.955Z,8.57
2023-04-10T07:33:36.414Z,10.83
2023-04-10T07:36:05.963Z,9.23
2023-04-10T07:38:33.953Z,9.37
2023-04-10T07:41:01.745Z,10.40
2023-04-10T07:43:31.015Z,9.47
2023-04-10T07:45:59.050Z,8.43
2023-04-10T07:48:27.026Z,8.90
2023-04-10T07:50:54.846Z,10.73
2023-04-10T07:53:22.742Z,8.97
2023-04-10T07:55:50.931Z,8.63
2023-04-10T07:58:18.744Z,9.07
2023-04-10T08:00:48.171Z,12.17
2023-04-10T08:03:16.792Z,8.50
2023-04-10T08:05:44.787Z,14.87
2023-04-10T08:08:12.685Z,9.50
2023-04-10T08:10:40.494Z,9.97
2023-04-10T08:13:08.349Z,10.03
2023-04-10T08:15:36.317Z,10.83
2023-04-10T08:18:05.572Z,10.83
2023-04-10T08:20:37.004Z,10.43
2023-04-10T08:23:17.159Z,10.73
2023-04-10T08:25:47.946Z,10.73
2023-04-10T08:28:15.720Z,10.20
2023-04-10T08:30:43.522Z,9.47
2023-04-10T08:33:12.733Z,9.23
2023-04-10T08:35:40.582Z,11.87
2023-04-10T08:38:14.065Z,9.67
2023-04-10T08:40:44.474Z,9.47
2023-04-10T08:43:12.596Z,9.83
2023-04-10T08:45:41.920Z,9.50
2023-04-10T08:48:13.174Z,10.57
2023-04-10T08:50:43.343Z,10.13
2023-04-10T08:53:13.215Z,11.80
2023-04-10T08:55:41.767Z,9.00
2023-04-10T08:58:11.377Z,9.93
2023-04-10T09:00:39.974Z,11.27
2023-04-10T09:03:11.899Z,10.70
2023-04-10T09:05:41.259Z,10.07
2023-04-10T09:08:09.494Z,9.43
2023-04-10T09:10:37.436Z,11.70
2023-04-10T09:13:05.300Z,12.10
2023-04-10T09:15:59.595Z,12.77
2023-04-10T09:18:42.622Z,9.60
2023-04-10T09:21:13.289Z,10.97
2023-04-10T09:23:42.748Z,10.03
2023-04-10T09:26:29.304Z,10.73
2023-04-10T09:29:02.506Z,9.30
2023-04-10T09:31:35.397Z,9.60
2023-04-10T09:34:14.075Z,9.40
2023-04-10T09:36:43.695Z,9.23
2023-04-10T09:39:12.955Z,8.87
2023-04-10T09:41:51.712Z,7.83
2023-04-10T09:44:21.452Z,11.43
2023-04-10T09:46:49.727Z,12.37
2023-04-10T09:49:17.608Z,11.43
2023-04-10T09:51:47.451Z,9.30
2023-04-10T09:54:15.372Z,10.07
2023-04-10T09:56:46.590Z,9.40
2023-04-10T09:59:15.732Z,9.20
2023-04-10T10:01:43.772Z,7.23
2023-04-10T10:04:12.712Z,37.40
2023-04-10T10:06:40.650Z,7.73
2023-04-10T10:09:10.348Z,7.40
2023-04-10T10:11:38.316Z,7.73
2023-04-10T10:14:11.140Z,7.90
2023-04-10T10:16:42.752Z,6.23
2023-04-10T10:19:14.699Z,6.97
2023-04-10T10:21:44.434Z,7.40
2023-04-10T10:24:14.409Z,6.30
2023-04-10T10:26:42.199Z,5.73
2023-04-10T10:29:11.166Z,5.77
2023-04-10T10:31:39.573Z,8.47
2023-04-10T10:34:09.190Z,6.43
2023-04-10T10:36:37.418Z,5.60
2023-04-10T10:39:30.757Z,7.53
2023-04-10T10:42:03.620Z,7.13
2023-04-10T10:44:38.472Z,6.33
2023-04-10T10:47:10.697Z,6.97
2023-04-10T10:49:58.285Z,5.63
2023-04-10T10:52:40.159Z,9.53
2023-04-10T10:55:36.756Z,7.17
2023-04-10T10:58:06.296Z,6.03
2023-04-10T11:01:10.244Z,6.07
2023-04-10T11:03:38.547Z,6.90
2023-04-10T11:06:08.856Z,8.10
2023-04-10T11:08:45.797Z,5.60
2023-04-10T11:11:18.645Z,6.07
2023-04-10T11:14:17.876Z,6.77
2023-04-10T11:16:47.963Z,6.20
2023-04-10T11:19:19.107Z,6.93
2023-04-10T11:22:08.921Z,6.60
2023-04-10T11:24:59.658Z,6.73
2023-04-10T11:27:49.739Z,8.27
2023-04-10T11:30:27.431Z,6.77
2023-04-10T11:32:55.677Z,6.87
2023-04-10T11:35:23.666Z,7.53
2023-04-10T11:37:51.734Z,5.87
2023-04-10T11:40:19.758Z,4.40
2023-04-10T11:42:48.941Z,4.23
2023-04-10T11:45:29.816Z,5.17
2023-04-10T11:47:57.753Z,4.00
2023-04-10T11:50:32.349Z,3.80
2023-04-10T11:53:00.141Z,3.70
2023-04-10T11:55:38.343Z,4.77
2023-04-10T11:58:22.704Z,4.23
2023-04-10T12:00:57.676Z,4.23
2023-04-10T12:03:36.289Z,4.30
2023-04-10T12:06:05.008Z,15.40
2023-04-10T12:08:33.516Z,5.37
2023-04-10T12:11:01.790Z,6.07
2023-04-10T12:13:31.682Z,5.10
2023-04-10T12:16:00.958Z,5.63
2023-04-10T12:18:30.118Z,6.27
2023-04-10T12:20:59.172Z,5.33
2023-04-10T12:23:28.361Z,7.00
2023-04-10T12:26:13.449Z,5.83
2023-04-10T12:28:43.550Z,7.37
2023-04-10T12:31:11.720Z,6.53
2023-04-10T12:33:40.724Z,6.67
2023-04-10T12:36:21.383Z,5.30
2023-04-10T12:38:49.207Z,4.43
2023-04-10T12:41:22.751Z,4.00
2023-04-10T12:43:52.607Z,4.83
2023-04-10T12:46:27.930Z,4.73
2023-04-10T12:48:56.418Z,6.37
2023-04-10T12:51:48.723Z,4.80
2023-04-10T12:54:30.002Z,4.20
2023-04-10T12:56:57.835Z,4.33
2023-04-10T12:59:28.006Z,4.53
2023-04-10T13:01:56.385Z,3.70
2023-04-10T13:04:24.727Z,3.93
2023-04-10T13:06:53.231Z,3.70
2023-04-10T13:09:21.183Z,3.33
2023-04-10T13:11:51.472Z,3.77
2023-04-10T13:14:19.793Z,3.70
2023-04-10T13:16:49.215Z,3.50
2023-04-10T13:19:17.068Z,3.27
2023-04-10T13:21:44.984Z,4.73
2023-04-10T13:24:14.705Z,7.00
2023-04-10T13:26:43.872Z,4.90
2023-04-10T13:29:11.997Z,3.63
2023-04-10T13:31:39.826Z,3.63
2023-04-10T13:34:09.071Z,3.80
2023-04-10T13:36:37.136Z,3.67
2023-04-10T13:39:05.147Z,3.63
2023-04-10T13:41:32.982Z,3.90
2023-04-10T13:44:00.832Z,4.43
2023-04-10T13:46:28.657Z,3.63
2023-04-10T13:48:56.580Z,5.30
2023-04-10T13:51:26.621Z,5.97
2023-04-10T13:53:54.469Z,3.90
2023-04-10T13:56:22.310Z,3.40
2023-04-10T13:58:50.080Z,5.63
2023-04-10T14:01:18.003Z,3.10
2023-04-10T14:03:46.034Z,3.93
2023-04-10T14:06:14.290Z,3.60
2023-04-10T14:08:43.458Z,3.13
2023-04-10T14:11:11.306Z,2.83
2023-04-10T14:13:39.101Z,2.93
2023-04-10T14:16:07.868Z,3.23
2023-04-10T14:18:35.747Z,3.53
2023-04-10T14:21:03.616Z,3.23
2023-04-10T14:23:31.559Z,3.33
2023-04-10T14:26:00.814Z,3.47
2023-04-10T14:28:29.293Z,3.80
2023-04-10T14:30:57.092Z,2.93
2023-04-10T14:33:24.901Z,3.20
2023-04-10T14:35:54.106Z,2.67
2023-04-10T14:38:21.971Z,3.40
2023-04-10T14:40:50.760Z,3.17
2023-04-10T14:43:19.960Z,3.13
2023-04-10T14:45:47.947Z,3.00
2023-04-10T14:48:16.053Z,3.13
2023-04-10T14:50:43.963Z,2.67
2023-04-10T14:53:11.784Z,2.77
2023-04-10T14:55:39.588Z,3.73
2023-04-10T14:58:09.014Z,2.80
2023-04-10T15:00:45.877Z,3.20
2023-04-10T15:03:13.743Z,3.30
2023-04-10T15:05:41.765Z,2.80
2023-04-10T15:08:09.525Z,3.10
2023-04-10T15:10:37.391Z,3.00
2023-04-10T15:13:06.011Z,2.60
2023-04-10T15:15:33.899Z,3.97
2023-04-10T15:18:03.095Z,2.67
2023-04-10T15:20:30.975Z,5.57
2023-04-10T15:22:58.817Z,4.03
2023-04-10T15:25:27.423Z,3.53
2023-04-10T15:27:56.456Z,3.27
2023-04-10T15:30:24.490Z,3.33
2023-04-10T15:32:52.350Z,3.13
2023-04-10T15:35:21.924Z,3.13
2023-04-10T15:37:49.747Z,3.13
2023-04-10T15:40:17.710Z,4.80
2023-04-10T15:42:45.736Z,2.50
2023-04-10T15:45:13.530Z,3.60
2023-04-10T15:47:41.403Z,2.57
2023-04-10T15:50:10.774Z,3.97
2023-04-10T15:52:40.201Z,2.53
2023-04-10T15:55:08.857Z,2.50
2023-04-10T15:57:36.670Z,7.40
2023-04-10T16:00:04.943Z,2.63
2023-04-10T16:02:33.180Z,2.67
2023-04-10T16:05:01.177Z,2.50
2023-04-10T16:07:29.122Z,2.93
2023-04-10T16:09:58.378Z,2.63
2023-04-10T16:12:26.301Z,2.30
2023-04-10T16:14:54.112Z,2.50
2023-04-10T16:17:21.943Z,3.27
2023-04-10T16:19:49.782Z,3.67
2023-04-10T16:22:17.587Z,2.43
2023-04-10T16:24:45.411Z,2.20
2023-04-10T16:27:14.615Z,2.93
2023-04-10T16:29:42.420Z,2.37
2023-04-10T16:32:10.224Z,2.73
2023-04-10T16:34:38.098Z,2.50
2023-04-10T16:37:05.999Z,3.63
2023-04-10T16:39:33.795Z,2.90
2023-04-10T16:42:03.497Z,2.60
2023-04-10T16:44:32.911Z,2.40
2023-04-10T16:47:00.944Z,2.73
2023-04-10T16:49:28.791Z,2.50
2023-04-10T16:51:56.599Z,2.57
2023-04-10T16:54:24.412Z,2.23
2023-04-10T16:56:52.216Z,2.50
2023-04-10T16:59:20.060Z,2.53
2023-04-10T17:01:49.230Z,3.03
2023-04-10T17:04:19.098Z,2.27
2023-04-10T17:06:47.007Z,2.33
2023-04-10T17:09:14.816Z,2.33
2023-04-10T17:11:42.645Z,2.23
2023-04-10T17:14:10.611Z,2.60
2023-04-10T17:16:38.460Z,2.40
2023-04-10T17:19:07.625Z,4.70
2023-04-10T17:21:35.766Z,2.60
2023-04-10T17:24:03.690Z,3.13
2023-04-10T17:26:31.872Z,2.20
2023-04-10T17:28:59.662Z,4.30
2023-04-10T17:31:27.543Z,2.20
2023-04-10T17:33:55.432Z,2.30
2023-04-10T17:36:24.788Z,2.87
2023-04-10T17:38:54.176Z,3.47
2023-04-10T17:41:22.184Z,2.03
2023-04-10T17:43:49.970Z,2.47
2023-04-10T17:46:17.807Z,2.30
2023-04-10T17:48:46.106Z,2.63
2023-04-10T17:51:14.085Z,2.63
2023-04-10T17:53:43.343Z,2.77
2023-04-10T17:56:18.459Z,2.77
2023-04-10T17:58:47.488Z,4.13
2023-04-10T18:01:22.527Z,2.80
2023-04-10T18:03:50.590Z,3.77
2023-04-10T18:06:18.741Z,2.50
2023-04-10T18:08:48.141Z,3.20
2023-04-10T18:11:15.991Z,2.00
2023-04-10T18:13:43.766Z,2.50
2023-04-10T18:16:12.021Z,2.60
2023-04-10T18:18:41.862Z,3.30
2023-04-10T18:21:10.472Z,5.13
2023-04-10T18:23:39.471Z,4.77
2023-04-10T18:26:08.930Z,3.20
2023-04-10T18:28:37.898Z,2.50
2023-04-10T18:31:06.459Z,4.10
2023-04-10T18:33:34.442Z,4.87
2023-04-10T18:36:03.540Z,2.93
2023-04-10T18:38:31.445Z,2.53
2023-04-10T18:40:59.487Z,2.53
2023-04-10T18:43:28.701Z,3.03
2023-04-10T18:45:56.510Z,2.90
2023-04-10T18:48:24.448Z,4.93
2023-04-10T18:50:53.170Z,2.33
2023-04-10T18:53:21.163Z,3.10
2023-04-10T18:55:53.079Z,2.63
2023-04-10T18:58:21.557Z,2.93
2023-04-10T19:00:50.957Z,3.67
2023-04-10T19:03:19.917Z,3.57
2023-04-10T19:05:47.942Z,3.67
2023-04-10T19:08:17.085Z,3.43
2023-04-10T19:10:44.893Z,3.30
2023-04-10T19:13:13.249Z,3.17
2023-04-10T19:15:42.480Z,2.60
2023-04-10T19:18:13.120Z,3.93
2023-04-10T19:20:50.788Z,2.90
2023-04-10T19:23:20.557Z,3.63
2023-04-10T19:25:48.555Z,4.97
2023-04-10T19:28:16.320Z,3.00
2023-04-10T19:30:44.069Z,4.47
2023-04-10T19:33:13.257Z,2.90
2023-04-10T19:35:41.120Z,3.00
2023-04-10T19:38:09.034Z,2.93
2023-04-10T19:40:37.224Z,3.10
2023-04-10T19:43:05.176Z,3.43
2023-04-10T19:45:33.292Z,4.60
2023-04-10T19:48:01.239Z,2.77
2023-04-10T19:50:31.350Z,3.30
2023-04-10T19:52:59.515Z,3.80
2023-04-10T19:55:27.717Z,3.47
2023-04-10T19:57:55.793Z,4.37
2023-04-10T20:00:23.622Z,3.40
2023-04-10T20:02:51.642Z,3.57
2023-04-10T20:05:19.757Z,3.57
2023-04-10T20:07:49.056Z,3.70
2023-04-10T20:10:16.830Z,3.67
2023-04-10T20:12:44.639Z,4.30
2023-04-10T20:15:13.505Z,3.70
2023-04-10T20:17:41.322Z,3.37
2023-04-10T20:20:10.089Z,2.90
2023-04-10T20:22:37.916Z,3.17
2023-04-10T20:25:08.409Z,2.93
2023-04-10T20:27:36.175Z,3.07
2023-04-10T20:30:04.311Z,3.03
2023-04-10T20:32:32.099Z,3.07
2023-04-10T20:34:59.901Z,3.83
2023-04-10T20:37:27.796Z,2.90
2023-04-10T20:39:55.600Z,3.27
2023-04-10T20:42:24.775Z,3.30
2023-04-10T20:44:52.743Z,3.07
2023-04-10T20:47:20.668Z,3.20
2023-04-10T20:49:48.420Z,3.80
2023-04-10T20:52:16.188Z,2.83
2023-04-10T20:54:43.975Z,3.20
2023-04-10T20:57:11.760Z,3.80
2023-04-10T20:59:40.930Z,3.37
2023-04-10T21:02:08.889Z,2.87
2023-04-10T21:04:36.741Z,4.27
2023-04-10T21:07:04.507Z,2.67
2023-04-10T21:09:32.276Z,3.60
2023-04-10T21:12:00.028Z,3.47
2023-04-10T21:14:27.819Z,3.33
2023-04-10T21:16:56.997Z,3.37
2023-04-10T21:19:24.851Z,3.20
2023-04-10T21:21:52.609Z,4.17
2023-04-10T21:24:20.393Z,3.37
2023-04-10T21:26:48.237Z,3.30
2023-04-10T21:29:16.096Z,3.50
2023-04-10T21:31:44.229Z,3.40
2023-04-10T21:34:13.537Z,3.73
2023-04-10T21:36:41.310Z,5.10
2023-04-10T21:39:09.507Z,4.37
2023-04-10T21:41:37.487Z,4.63
2023-04-10T21:44:05.519Z,4.60
2023-04-10T21:46:33.836Z,3.00
2023-04-10T21:49:01.645Z,3.40
2023-04-10T21:51:31.100Z,5.50
2023-04-10T21:53:58.919Z,4.83
2023-04-10T21:56:26.786Z,3.97
2023-04-10T21:58:54.730Z,3.73
2023-04-10T22:01:22.940Z,5.60
2023-04-10T22:03:50.970Z,3.10
2023-04-10T22:06:18.826Z,5.00
2023-04-10T22:08:48.012Z,4.17
2023-04-10T22:11:15.778Z,4.63
2023-04-10T22:13:43.550Z,4.00
2023-04-10T22:16:11.349Z,4.70
2023-04-10T22:18:39.230Z,3.67
2023-04-10T22:21:07.418Z,4.13
2023-04-10T22:23:35.245Z,4.93
2023-04-10T22:26:04.368Z,6.80
2023-04-10T22:28:32.160Z,5.53
2023-04-10T22:30:59.990Z,5.63
2023-04-10T22:33:27.844Z,3.87
2023-04-10T22:35:55.741Z,5.13
2023-04-10T22:38:23.571Z,4.17
2023-04-10T22:40:51.369Z,6.47
2023-04-10T22:43:20.519Z,4.60
2023-04-10T22:45:48.368Z,4.00
2023-04-10T22:48:16.204Z,4.40
2023-04-10T22:50:43.983Z,4.63
2023-04-10T22:53:12.186Z,4.53
2023-04-10T22:55:40.047Z,5.63
2023-04-10T22:58:07.945Z,4.97
2023-04-10T23:00:37.262Z,4.00
2023-04-10T23:03:05.286Z,3.63
2023-04-10T23:05:34.072Z,4.23
2023-04-10T23:08:13.161Z,5.23
2023-04-10T23:10:40.962Z,4.33
2023-04-10T23:13:08.774Z,2.97
2023-04-10T23:15:38.074Z,3.03
2023-04-10T23:18:06.120Z,3.10
2023-04-10T23:20:34.634Z,3.40
2023-04-10T23:23:02.672Z,3.97
2023-04-10T23:25:30.619Z,2.83
2023-04-10T23:27:59.894Z,2.63
2023-04-10T23:30:28.976Z,3.97
2023-04-10T23:32:58.349Z,1.60
2023-04-10T23:35:27.973Z,2.23
2023-04-10T23:37:55.808Z,4.20
2023-04-10T23:40:23.776Z,1.90
2023-04-10T23:42:51.828Z,2.80
2023-04-10T23:45:19.650Z,1.70
2023-04-10T23:47:49.521Z,1.70
2023-04-10T23:50:20.334Z,2.20
2023-04-10T23:52:50.263Z,2.90
2023-04-10T23:55:18.626Z,1.30
2023-04-10T23:57:46.390Z,1.63
